Flight Track Log - Related Links

Times and Time Zones

All times are in EDT time to prevent confusion due to time zone crossing. See the SWA2855 flight status page for this flight to view local times or setup timezone preferences in your user account.

Time Position Orientation Groundspeed Altitude Reporting Facility
EDT Latitude Longitude Course Direction KTS MPH feet Rate Location/Type
Wed 06:22:26 AM 39.1333 -76.6500 270° West 186 214 2,000  Level Potomac TRACON
Wed 06:23:26 AM 39.1333 -76.7000 270° West 202 232 5,100 3,050 Climbing Potomac TRACON
Wed 06:24:26 AM 39.1500 -76.7833 284° West 247 284 8,100 3,550 Climbing Potomac TRACON
Wed 06:25:26 AM 39.1833 -76.8833 293° West 273 314 12,200 3,950 Climbing Potomac TRACON
Wed 06:26:26 AM 39.2167 -76.9667 297° West 263 303 16,000 2,497 Climbing Potomac TRACON
Wed 06:28:43 AM 39.1256 -77.2103 244° Southwest 335 386 20,400 2,162 Climbing Washington Center
Wed 06:29:43 AM 39.1050 -77.3408 259° West 360 414 23,100 2,300 Climbing Washington Center
Wed 06:30:43 AM 39.0842 -77.4742 259° West 373 429 25,000 2,000 Climbing Washington Center
Wed 06:31:43 AM 39.0633 -77.6019 258° West 399 459 27,100 2,250 Climbing Washington Center
Wed 06:32:43 AM 39.0400 -77.7508 259° West 399 459 29,500 1,450 Climbing Washington Center
Wed 06:33:43 AM 39.0164 -77.8944 258° West 399 459 30,000 250 Climbing Washington Center
Wed 06:34:43 AM 38.9931 -78.0247 257° West 415 478 30,000  Level Washington Center
Wed 06:35:43 AM 38.9692 -78.1708 258° West 422 486 30,000  Level Washington Center
Wed 06:36:43 AM 38.9639 -78.3200 267° West 422 486 30,000  Level Washington Center
Wed 06:37:43 AM 38.9689 -78.4617 273° West 417 480 30,000  Level Washington Center
Wed 06:38:43 AM 38.9736 -78.6061 272° West 417 480 30,000  Level Washington Center
Wed 06:39:43 AM 38.9761 -78.7531 271° West 417 480 30,000  Level Washington Center
Wed 06:40:43 AM 38.9806 -78.8975 272° West 417 480 30,000  Level Washington Center
Wed 06:41:43 AM 38.9847 -79.0419 272° West 417 480 30,000  Level Washington Center
Wed 06:42:43 AM 38.9889 -79.1864 272° West 411 473 30,000  Level Washington Center
Wed 06:43:43 AM 38.9931 -79.3281 272° West 405 466 30,000  Level Washington Center
Wed 06:44:43 AM 38.9967 -79.4725 272° West 405 466 30,000  Level Washington Center
Wed 06:45:43 AM 39.0083 -79.6228 276° West 411 473 30,000  Level Washington Center
Wed 06:46:43 AM 39.0217 -79.7811 276° West 411 473 30,000  Level Washington Center
Wed 06:47:43 AM 39.0325 -79.8914 277° West 411 473 30,000  Level Washington Center
Wed 06:50:08 AM 39.0611 -80.2444 276° West 402 463 30,000  Level Indianapolis Center
Wed 06:51:08 AM 39.0733 -80.3867 276° West 402 463 30,000  Level Indianapolis Center
Wed 06:52:09 AM 39.0858 -80.5281 277° West 399 459 30,000 -295 Level Indianapolis Center
Wed 06:53:10 AM 39.0958 -80.6694 275° West 399 459 29,400 -787 Descending Indianapolis Center
Wed 06:54:11 AM 39.1097 -80.8106 277° West 398 458 28,400 -984 Descending Indianapolis Center
Wed 06:55:12 AM 39.1239 -80.9503 277° West 395 455 27,400 -1,041 Descending Indianapolis Center
Wed 06:56:12 AM 39.1406 -81.1181 277° West 396 456 26,300 -1,041 Descending Indianapolis Center
Wed 06:57:13 AM 39.1556 -81.2592 278° West 400 460 25,300 -976 Descending Indianapolis Center
Wed 06:58:15 AM 39.1697 -81.3831 278° West 353 406 24,300 -1,317 Descending Indianapolis Center
Wed 06:59:16 AM 39.1842 -81.4936 280° West 318 366 22,600 -1,636 Descending Indianapolis Center
Wed 07:00:16 AM 39.2208 -81.5939 295° West 321 369 21,000 -1,289 Descending Indianapolis Center
Wed 07:01:17 AM 39.2731 -81.6994 303° West 346 398 20,000 -492 Descending Indianapolis Center
Wed 07:02:18 AM 39.3244 -81.8039 302° West 346 398 20,000  Level Indianapolis Center
Wed 07:03:19 AM 39.3744 -81.9058 302° West 337 388 20,000 -443 Level Indianapolis Center
Wed 07:04:20 AM 39.4247 -82.0103 302° West 344 396 19,100 -1,525 Descending Indianapolis Center
Wed 07:05:21 AM 39.4731 -82.1100 302° West 330 380 16,900 -2,361 Descending Indianapolis Center
Wed 07:06:22 AM 39.5231 -82.2125 302° West 316 364 14,300 -2,526 Descending Indianapolis Center
Wed 07:06:56 AM 39.5519 -82.2753 301° West 305 351 12,900 -2,200 Descending Indianapolis Center
Wed 07:07:22 AM 39.5664 -82.3061 301° West 302 348 12,100 -1,377 Descending Indianapolis Center
Wed 07:07:57 AM 39.6103 -82.3464 325° Northwest 299 344 11,500 -1,180 Descending Indianapolis Center
Wed 07:08:23 AM 39.6369 -82.3622 335° Northwest 294 338 10,900 -1,545 Descending Indianapolis Center
Wed 07:09:03 AM 39.6867 -82.3950 333° Northwest 282 325 9,800 -1,574 Descending Indianapolis Center
Wed 07:09:24 AM 39.7069 -82.4083 333° Northwest 282 325 9,300 -1,745 Descending Indianapolis Center
Wed 07:09:58 AM 39.7511 -82.4369 334° Northwest 274 315 8,200 -1,574 Descending Indianapolis Center
Wed 07:10:25 AM 39.7756 -82.4531 333° Northwest 275 316 7,700 -1,612 Descending Indianapolis Center
Wed 07:11:05 AM 39.8272 -82.4886 332° Northwest 273 314 6,400 -1,672 Descending Indianapolis Center
Wed 07:11:26 AM 39.8444 -82.4975 338° Northwest 275 316 6,000 -1,100 Descending Indianapolis Center
Wed 07:12:05 AM 39.8936 -82.5283 334° Northwest 263 303 5,300 -1,279 Descending Indianapolis Center
Wed 07:12:27 AM 39.9078 -82.5386 331° Northwest 257 296 4,700 -1,279 Descending Indianapolis Center
Wed 07:13:06 AM 39.9581 -82.5706 334° Northwest 255 293 4,000 -787 Descending Indianapolis Center
Wed 07:13:28 AM 39.9725 -82.5803 333° Northwest 256 295 3,900  Descending Indianapolis Center
Wed 07:14:07 AM 39.9792 -82.6328 279° West 187 215 4,000 97 Climbing Indianapolis Center
Wed 07:14:30 AM 39.9811 -82.6494 279° West 210 242 4,000 -636 Level Indianapolis Center
Wed 07:15:13 AM 39.9844 -82.7122 274° West 187 215 3,300 -1,082 Descending Indianapolis Center
Wed 07:15:31 AM 39.9853 -82.7294 274° West 196 226 2,900 -764 Descending Indianapolis Center
Wed 07:16:08 AM 39.9875 -82.7589 276° West 157 181 2,600 -689 Descending Indianapolis Center
Wed 07:16:32 AM 39.9883 -82.7803 273° West 161 185 2,200 -787 Descending Indianapolis Center
Wed 07:17:09 AM 39.9903 -82.8108 275° West 130 150 1,800 -689 Descending Indianapolis Center
Wed 07:17:33 AM 39.9903 -82.8269 270° West 138 159 1,500 -667 Descending Indianapolis Center
Wed 07:18:03 AM 39.9919 -82.8492 276° West 125 144 1,200 -295 Descending Indianapolis Center
Wed 07:18:34 AM 39.9928 -82.8761 272° West 133 153 1,200  Level Indianapolis Center
Wed 07:20:00 AM 39.9833 -82.8833 287° West  Level FlightAware Approximate

Login

Don't have an account? Register now (free) for customized features, flight alerts, and more!